• Join FlightAware (Why Join?)
  • Login
  • US Flag 
08:58PM EDT


 

Airport Tracker/Info


-or-


 

Live Flight TrackerFlight Track Log ✈ AMX526 ✈ 10-Sep-2013 ✈ MMMD / MID - MMMX / MEX

Flight Track Log - Related Links

Times and Time Zones

All times are in EDT time to prevent confusion due to time zone crossing. See the AMX526 flight status page for this flight to view local times or setup timezone preferences in your user account.

Time Position Orientation Groundspeed Altitude Reporting Facility
EDT Latitude Longitude Course Direction KTS MPH feet Rate Location/Type
08:55PM 20.9310 -89.6350 90° East 143 165 700  Level FlightAware
08:55PM 20.9280 -89.6250 108° East 137 158 1,300 1,800 Climbing FlightAware
08:55PM 20.9250 -89.6110 103° East 157 181 1,800 1,320 Climbing FlightAware
08:56PM 20.9210 -89.5940 104° East 187 215 2,200 1,500 Climbing FlightAware
08:56PM 20.9190 -89.5830 101° East 194 223 2,600 2,640 Climbing FlightAware
08:56PM 20.9130 -89.5610 106° East 194 223 3,800 3,000 Climbing FlightAware
08:56PM 20.9120 -89.5530 98° East 194 223 4,200 2,100 Climbing FlightAware
08:57PM 20.9190 -89.5350 67° East 211 243 4,800 1,740 Climbing FlightAware
08:57PM 20.9220 -89.5310 51° Northeast 219 252 4,900 1,500 Climbing FlightAware
08:57PM 20.9290 -89.5270 28° Northeast 232 267 5,100 1,080 Climbing FlightAware
08:57PM 20.9380 -89.5250 12° North 253 291 5,200 1,620 Climbing FlightAware
08:57PM 20.9690 -89.5360 342° North 282 325 6,100 2,220 Climbing FlightAware
08:58PM 20.9930 -89.5520 328° Northwest 290 334 7,000 2,640 Climbing FlightAware
08:58PM 21.0120 -89.5640 329° Northwest 293 337 7,700 2,640 Climbing FlightAware
08:58PM 21.0360 -89.5780 331° Northwest 297 342 8,600 2,520 Climbing FlightAware
08:59PM 21.0600 -89.5920 331° Northwest 301 346 9,400 2,520 Climbing FlightAware
08:59PM 21.0700 -89.5980 331° Northwest 303 349 9,800 3,000 Climbing FlightAware
08:59PM 21.0810 -89.6120 310° West 314 361 10,400 2,100 Climbing FlightAware
08:59PM 21.0870 -89.6240 298° West 328 377 10,500 1,080 Climbing FlightAware
08:59PM 21.0890 -89.6360 280° West 339 390 10,700 1,320 Climbing FlightAware
09:00PM 21.0930 -89.7010 274° West 376 433 11,500 2,160 Climbing FlightAware
09:00PM 21.0990 -89.7610 276° West 373 429 13,200 2,820 Climbing FlightAware
09:01PM 21.1050 -89.8270 276° West 384 442 14,700 2,580 Climbing FlightAware
09:02PM 21.1110 -89.8950 275° West 391 450 16,300 2,700 Climbing FlightAware
09:02PM 21.1170 -89.9620 275° West 398 458 17,900 2,520 Climbing FlightAware
09:03PM 21.1230 -90.0310 275° West 406 467 19,200 2,280 Climbing FlightAware
09:03PM 21.1300 -90.1060 276° West 415 478 20,700 2,400 Climbing FlightAware
09:04PM 21.1360 -90.1730 275° West 423 487 22,000 2,280 Climbing FlightAware
09:05PM 21.1420 -90.2490 275° West 432 497 23,300 2,040 Climbing FlightAware
09:05PM 21.1490 -90.3260 276° West 439 505 24,500 2,160 Climbing FlightAware
09:06PM 21.1560 -90.4040 276° West 437 503 26,000 2,280 Climbing FlightAware
09:06PM 21.1620 -90.4770 275° West 440 506 27,200 1,860 Climbing FlightAware
09:07PM 21.1610 -90.5640 269° West 452 520 28,300 1,560 Climbing FlightAware
09:08PM 21.1550 -90.6460 266° West 462 532 29,200 1,500 Climbing FlightAware
09:08PM 21.1480 -90.7320 265° West 467 537 30,200 1,680 Climbing FlightAware
09:09PM 21.1410 -90.8070 264° West 466 536 31,200 2,160 Climbing FlightAware
09:09PM 21.1350 -90.8880 265° West 453 521 32,700 2,340 Climbing FlightAware
09:10PM 21.1290 -90.9610 265° West 446 513 33,900 1,980 Climbing FlightAware
09:10PM 21.1220 -91.0380 264° West 443 510 35,000 1,620 Climbing FlightAware
09:11PM 21.1150 -91.1220 265° West 444 511 35,900 1,440 Climbing FlightAware
09:12PM 21.1080 -91.2100 265° West 444 511 36,900 1,380 Climbing FlightAware
09:12PM 21.1010 -91.2880 265° West 444 511 37,700 1,500 Climbing FlightAware
09:13PM 21.0940 -91.3660 265° West 437 503 38,700 1,560 Climbing FlightAware
09:13PM 21.0890 -91.4350 266° West 433 498 39,500 1,140 Climbing FlightAware
09:14PM 21.0820 -91.5110 264° West 435 501 40,000 420 Climbing FlightAware
09:15PM 21.0760 -91.5830 265° West 435 501 40,000  Level FlightAware
09:15PM 21.0730 -91.6210 265° West 435 501 40,000  Level FlightAware
09:16PM 21.0660 -91.6950 264° West 435 501 40,000  Level FlightAware
09:16PM 21.0590 -91.7710 264° West 435 501 40,000  Level FlightAware
09:17PM 21.0500 -91.8750 265° West 434 499 40,000  Level FlightAware
09:18PM 21.0450 -91.9390 265° West 432 497 40,000  Level FlightAware
09:18PM 21.0370 -92.0220 264° West 429 494 40,000  Level FlightAware
09:19PM 21.0300 -92.1020 265° West 429 494 40,000  Level FlightAware
09:20PM 21.0220 -92.1960 265° West 425 489 40,000  Level FlightAware
09:20PM 21.0130 -92.2950 264° West 424 488 40,000  Level FlightAware
09:21PM 21.0070 -92.3540 264° West 426 490 40,000  Level FlightAware
09:22PM 21.0010 -92.4210 265° West 428 493 40,000  Level FlightAware
09:22PM 20.9940 -92.4980 264° West 428 493 40,000  Level FlightAware
09:23PM 20.9870 -92.5700 264° West 428 493 40,000  Level FlightAware
09:23PM 20.9800 -92.6490 265° West 427 491 40,000  Level FlightAware
09:24PM 20.9690 -92.7630 264° West 426 490 40,000  Level FlightAware
09:25PM 20.9620 -92.8400 264° West 426 490 40,000  Level FlightAware
09:25PM 20.9560 -92.9040 264° West 426 490 40,000  Level FlightAware
09:26PM 20.9480 -92.9880 264° West 425 489 40,000  Level FlightAware
09:27PM 20.9380 -93.0930 264° West 424 488 40,000  Level FlightAware
09:28PM 20.9300 -93.1780 264° West 424 488 40,000  Level FlightAware
09:28PM 20.9250 -93.2260 264° West 424 488 40,000  Level FlightAware
09:29PM 20.9190 -93.2900 264° West 424 488 40,000  Level FlightAware
09:29PM 20.9130 -93.3540 264° West 424 488 40,000  Level FlightAware
09:30PM 20.9070 -93.4180 264° West 424 488 40,000  Level FlightAware
09:31PM 20.9000 -93.4850 264° West 424 488 40,000  Level FlightAware
09:31PM 20.8860 -93.6260 264° West 421 484 40,000  Level FlightAware
09:32PM 20.8780 -93.7160 265° West 421 484 40,000  Level FlightAware
09:33PM 20.8710 -93.7790 263° West 421 484 40,000  Level FlightAware
09:33PM 20.8650 -93.8430 264° West 421 484 40,000  Level FlightAware
09:34PM 20.8590 -93.9080 264° West 421 484 40,000  Level FlightAware
09:34PM 20.8520 -93.9710 263° West 421 484 40,000  Level FlightAware
09:35PM 20.8460 -94.0370 264° West 421 484 40,000  Level FlightAware
09:36PM 20.8400 -94.1000 264° West 421 484 40,000  Level FlightAware
09:36PM 20.8340 -94.1630 264° West 421 484 40,000  Level FlightAware
09:37PM 20.8270 -94.2290 264° West 421 484 40,000  Level FlightAware
09:37PM 20.8210 -94.2920 264° West 421 484 40,000  Level FlightAware
09:38PM 20.8150 -94.3550 264° West 421 484 40,000  Level FlightAware
09:39PM 20.8080 -94.4190 263° West 421 484 40,000  Level FlightAware
09:39PM 20.8020 -94.4840 264° West 421 484 40,000  Level FlightAware
09:40PM 20.7960 -94.5490 264° West 421 484 40,000  Level FlightAware
09:40PM 20.7890 -94.6130 263° West 421 484 40,000  Level FlightAware
09:41PM 20.7830 -94.6760 264° West 421 484 40,000 -660 Level FlightAware
09:44PM 20.7042 -94.9456 253° West  Level Estimated
09:45PM 20.6715 -95.0571 253° West  Level Estimated
09:46PM 20.6387 -95.1686 253° West  Level Estimated
09:47PM 20.6058 -95.2800 253° West  Level Estimated
09:48PM 20.5729 -95.3913 252° West  Level Estimated
09:49PM 20.5399 -95.5026 252° West  Level Estimated
09:50PM 20.5068 -95.6139 252° West  Level Estimated
09:51PM 20.4737 -95.7251 252° West  Level Estimated
09:52PM 20.4404 -95.8362 252° West  Level Estimated
09:53PM 20.4072 -95.9473 252° West  Level Estimated
09:54PM 20.3738 -96.0584 252° West  Level Estimated
09:55PM 20.3404 -96.1694 252° West  Level Estimated
09:56PM 20.3069 -96.2803 252° West  Level Estimated
09:57PM 20.2733 -96.3913 252° West  Level Estimated
09:58PM 20.2397 -96.5021 252° West  Level Estimated
09:59PM 20.2059 -96.6129 252° West  Level Estimated
10:00PM 20.1722 -96.7237 252° West  Level Estimated
10:01PM 20.1383 -96.8344 252° West  Level Estimated
10:02PM 20.1044 -96.9451 252° West  Level Estimated
10:03PM 20.0704 -97.0557 252° West  Level Estimated
10:04PM 20.0363 -97.1663 252° West  Level Estimated
10:05PM 20.0022 -97.2768 252° West  Level Estimated
10:06PM 19.9680 -97.3873 252° West  Level Estimated
10:07PM 19.9338 -97.4977 252° West  Level Estimated
10:08PM 19.8994 -97.6081 252° West  Level Estimated
10:09PM 19.8650 -97.7185 252° West  Level Estimated
10:10PM 19.8306 -97.8288 252° West  Level Estimated
10:11PM 19.7960 -97.9390 252° West  Level Estimated
10:12PM 19.7614 -98.0492 252° West  Level Estimated
10:13PM 19.7268 -98.1593 252° West  Level Estimated
10:14PM 19.6920 -98.2694 251° West  Level Estimated
10:15PM 19.6572 -98.3795 251° West  Level Estimated
10:16PM 19.6224 -98.4895 251° West  Level Estimated
10:16PM 19.7660 -99.0070 251° West 310 357 17,000  Level FlightAware
10:16PM 19.7320 -99.0420 224° Southwest 310 357 16,800 -1,260 Descending FlightAware
10:17PM 19.6950 -99.0820 226° Southwest 290 334 15,500 -1,800 Descending FlightAware
10:18PM 19.6580 -99.1210 225° Southwest 284 327 14,700 -1,560 Descending FlightAware
10:18PM 19.6220 -99.1580 224° Southwest 291 335 13,500 -1,500 Descending FlightAware
10:19PM 19.5880 -99.1950 226° Southwest 283 326 12,800 -1,200 Descending FlightAware
10:20PM 19.5530 -99.2260 220° Southwest 235 270 12,000 -1,200 Descending FlightAware
10:20PM 19.5380 -99.2260 180° South 227 261 11,700 -1,140 Descending FlightAware
10:20PM 19.5210 -99.2210 165° South 213 245 11,400 -1,020 Descending FlightAware
10:21PM 19.4850 -99.2090 163° South 200 230 10,800 -900 Descending FlightAware
10:21PM 19.4560 -99.2020 167° South 195 224 10,300 -1,020 Descending FlightAware
10:22PM 19.4380 -99.1970 165° South 193 222 9,900 -1,140 Descending FlightAware
10:22PM 19.4260 -99.1940 167° South 190 219 9,700 -960 Descending FlightAware
10:22PM 19.4060 -99.1890 167° South 194 223 9,400 -1,200 Descending FlightAware
10:23PM 19.3880 -99.1810 157° South 193 222 8,900 -1,320 Descending FlightAware
10:23PM 19.3860 -99.1770 118° Southeast 178 205 8,800 -540 Descending FlightAware
10:23PM 19.3850 -99.1720 102° East 165 190 8,800 -660 Level FlightAware
10:23PM 19.3880 -99.1580 77° East 164 189 8,500 -840 Descending FlightAware
10:23PM 19.3940 -99.1450 64° Northeast 157 181 8,300 -840 Descending FlightAware
10:24PM 19.4020 -99.1310 59° Northeast 144 166 8,000 -780 Descending FlightAware
10:24PM 19.4100 -99.1170 59° Northeast 142 163 7,700 -360 Descending FlightAware
10:25PM 19.4170 -99.1030 62° Northeast 142 163 7,700  Level FlightAware
10:27PM 19.4363 -99.0721 56° Northeast  Level Estimated
10:28PM 19.4363 -99.0721 43° Northeast  Level Estimated
10:29PM 19.4363 -99.0721 43° Northeast  Level Estimated
10:30PM 19.4363 -99.0721 43° Northeast  Level Estimated
10:31PM 19.4363 -99.0721 43° Northeast  Level Estimated
10:32PM 19.4363 -99.0721 43° Northeast  Level Estimated